Time;durP1;ratioP1;P1;durP2;ratioP2;P2;SDS_P1;SDS_P2;PMS_P1;PMS_P2;Temp;Humidity;BMP_temperature;BMP_pressure;BME280_temperature;BME280_humidity;BME280_pressure;Samples;Min_cycle;Max_cycle;Signal;HPM_P1;HPM_P2
2020/12/15 00:00:51;;;;;;;;;;;15.50;89.20;;;;;;4230889;28;19927;-39
2020/12/15 00:03:12;;;;;;;;;;;15.50;88.40;;;;;;4230401;28;20407;-39
2020/12/15 00:05:33;;;;;;;;;;;15.50;88.50;;;;;;4230052;28;20018;-39
2020/12/15 00:07:54;;;;;;;;;;;15.50;88.40;;;;;;4242582;27;19935;-39
2020/12/15 00:10:15;;;;;;;;;;;15.50;88.60;;;;;;4247028;27;19934;-39
2020/12/15 00:12:36;;;;;;;;;;;15.40;88.50;;;;;;4247414;27;19946;-39
2020/12/15 00:14:58;;;;;;;;;;;15.50;88.70;;;;;;4247020;27;19923;-39
2020/12/15 00:17:19;;;;;;;;;;;15.40;88.60;;;;;;4246766;27;20043;-38
2020/12/15 00:19:40;;;;;;;;;;;15.40;88.70;;;;;;4246972;27;20014;-39
2020/12/15 00:22:01;;;;;;;;;;;15.40;88.70;;;;;;4246956;27;19977;-38
2020/12/15 00:24:22;;;;;;;;;;;15.40;88.70;;;;;;4246766;27;19924;-39
2020/12/15 00:26:42;;;;;;;;;;;15.40;88.70;;;;;;4246586;27;19931;-39
2020/12/15 00:29:03;;;;;;;;;;;15.40;88.80;;;;;;4246696;27;20019;-38
2020/12/15 00:31:25;;;;;;;;;;;15.40;88.80;;;;;;4246302;27;19931;-39
2020/12/15 00:33:46;;;;;;;;;;;15.30;88.80;;;;;;4247306;27;20457;-39
2020/12/15 00:36:07;;;;;;;;;;;15.30;89.00;;;;;;4246826;27;19972;-39
2020/12/15 00:38:27;;;;;;;;;;;15.30;88.90;;;;;;4229672;28;20404;-39
2020/12/15 00:40:48;;;;;;;;;;;15.30;89.00;;;;;;4245469;27;19923;-39
2020/12/15 00:43:09;;;;;;;;;;;15.30;88.90;;;;;;4246657;27;19934;-39
2020/12/15 00:45:33;;;;;;;;;;;15.30;89.00;;;;;;4247129;27;20022;-39
2020/12/15 00:47:54;;;;;;;;;;;15.30;89.00;;;;;;4246409;27;19923;-38
2020/12/15 00:50:15;;;;;;;;;;;15.30;89.00;;;;;;4245372;27;19924;-39
2020/12/15 00:52:36;;;;;;;;;;;15.30;89.20;;;;;;4246431;27;19933;-39
2020/12/15 00:54:57;;;;;;;;;;;15.30;89.10;;;;;;4245477;27;19927;-39
2020/12/15 00:57:18;;;;;;;;;;;15.20;89.10;;;;;;4246248;27;19923;-39
2020/12/15 00:59:39;;;;;;;;;;;15.20;89.10;;;;;;4246334;27;20409;-39
2020/12/15 01:02:01;;;;;;;;;;;15.20;89.30;;;;;;4246393;27;20631;-39
2020/12/15 01:04:24;;;;;;;;;;;15.20;89.30;;;;;;4245062;27;20018;-39
2020/12/15 01:06:49;;;;;;;;;;;15.20;89.30;;;;;;4246793;27;20018;-39
2020/12/15 01:09:12;;;;;;;;;;;15.20;89.30;;;;;;4245677;27;19966;-39
2020/12/15 01:11:34;;;;;;;;;;;15.20;89.30;;;;;;4245099;28;19943;-39
2020/12/15 01:14:00;;;;;;;;;;;15.20;89.50;;;;;;4245153;27;19927;-39
2020/12/15 01:16:22;;;;;;;;;;;15.20;89.40;;;;;;4245364;27;19931;-39
2020/12/15 01:18:48;;;;;;;;;;;15.20;89.60;;;;;;4228384;28;20308;-38
2020/12/15 01:21:25;;;;;;;;;;;15.20;89.60;;;;;;4228193;28;19958;-40
2020/12/15 01:23:47;;;;;;;;;;;15.20;89.70;;;;;;4257521;27;19935;-39
2020/12/15 01:26:08;;;;;;;;;;;15.20;89.70;;;;;;4228729;28;20019;-38
2020/12/15 01:28:29;;;;;;;;;;;15.20;89.60;;;;;;4228508;28;20429;-39
2020/12/15 01:30:51;;;;;;;;;;;15.20;89.70;;;;;;4228163;28;19930;-39
2020/12/15 01:33:24;;;;;;;;;;;15.10;89.70;;;;;;4229267;28;19924;-39
2020/12/15 01:36:03;;;;;;;;;;;15.10;89.70;;;;;;4229502;28;20004;-39
2020/12/15 01:38:38;;;;;;;;;;;15.10;89.80;;;;;;4228008;28;19949;-39
2020/12/15 01:41:00;;;;;;;;;;;15.10;89.80;;;;;;4228057;28;20373;-39
2020/12/15 01:43:22;;;;;;;;;;;15.10;89.70;;;;;;4231427;28;20004;-39
2020/12/15 01:45:43;;;;;;;;;;;15.20;89.90;;;;;;4231796;28;19966;-39
2020/12/15 01:48:04;;;;;;;;;;;15.20;90.20;;;;;;4248135;27;19927;-39
2020/12/15 01:50:35;;;;;;;;;;;15.30;89.30;;;;;;4248448;27;19988;-39
2020/12/15 01:52:58;;;;;;;;;;;15.40;89.00;;;;;;4248456;27;19963;-39
2020/12/15 01:55:20;;;;;;;;;;;15.50;88.60;;;;;;4249388;27;19927;-40
2020/12/15 01:57:53;;;;;;;;;;;15.50;88.30;;;;;;4248066;27;20444;-39
2020/12/15 02:00:26;;;;;;;;;;;15.60;88.20;;;;;;4248228;27;19924;-39
2020/12/15 02:03:07;;;;;;;;;;;15.60;88.00;;;;;;4249580;27;20700;-39
2020/12/15 02:05:48;;;;;;;;;;;15.60;87.90;;;;;;4248765;27;19923;-38
2020/12/15 02:08:11;;;;;;;;;;;15.60;87.80;;;;;;4240737;27;19923;-39
2020/12/15 02:10:34;;;;;;;;;;;15.60;87.80;;;;;;4247888;27;19933;-39
2020/12/15 02:13:08;;;;;;;;;;;15.60;87.80;;;;;;4247930;27;20373;-39
2020/12/15 02:15:29;;;;;;;;;;;15.60;87.80;;;;;;4248415;27;20351;-39
2020/12/15 02:17:58;;;;;;;;;;;15.70;87.80;;;;;;4247525;27;20346;-39
2020/12/15 02:20:42;;;;;;;;;;;15.80;87.40;;;;;;4248309;27;19930;-38
2020/12/15 02:23:14;;;;;;;;;;;15.80;87.00;;;;;;4248359;27;19927;-38
2020/12/15 02:25:42;;;;;;;;;;;15.80;86.70;;;;;;4247643;27;19930;-39
2020/12/15 02:28:04;;;;;;;;;;;15.80;86.70;;;;;;4247649;27;20443;-39
2020/12/15 02:30:24;;;;;;;;;;;15.80;86.80;;;;;;4248113;27;19943;-39
2020/12/15 02:32:48;;;;;;;;;;;15.80;86.80;;;;;;4248727;27;19980;-39
2020/12/15 02:35:14;;;;;;;;;;;15.80;87.00;;;;;;4247769;27;19974;-39
2020/12/15 02:37:36;;;;;;;;;;;15.80;87.10;;;;;;4247380;27;19927;-39
2020/12/15 02:39:59;;;;;;;;;;;15.70;87.10;;;;;;4247559;27;19931;-39
2020/12/15 02:42:52;;;;;;;;;;;15.80;87.20;;;;;;4247182;27;19951;-39
2020/12/15 02:45:18;;;;;;;;;;;16.00;86.40;;;;;;4247708;27;20234;-39
2020/12/15 02:47:39;;;;;;;;;;;16.10;85.60;;;;;;4248349;27;20385;-39
2020/12/15 02:50:00;;;;;;;;;;;16.20;85.10;;;;;;4247504;27;20296;-39
2020/12/15 02:52:22;;;;;;;;;;;16.30;84.80;;;;;;4247348;27;20409;-40
2020/12/15 02:54:45;;;;;;;;;;;16.30;84.70;;;;;;4247183;27;19996;-39
2020/12/15 02:57:08;;;;;;;;;;;16.30;84.70;;;;;;4246986;27;19959;-39
2020/12/15 02:59:29;;;;;;;;;;;16.20;84.80;;;;;;4247218;27;20519;-39
2020/12/15 03:01:52;;;;;;;;;;;16.20;85.00;;;;;;4247036;27;19923;-39
2020/12/15 03:04:16;;;;;;;;;;;16.20;84.80;;;;;;4247170;27;19930;-39
2020/12/15 03:06:41;;;;;;;;;;;16.30;84.70;;;;;;4246903;27;19927;-39
2020/12/15 03:09:11;;;;;;;;;;;16.30;84.60;;;;;;4247354;27;19929;-39
2020/12/15 03:11:39;;;;;;;;;;;16.30;84.70;;;;;;4247062;27;19985;-39
2020/12/15 03:14:09;;;;;;;;;;;16.20;84.80;;;;;;4247165;27;19995;-39
2020/12/15 03:16:30;;;;;;;;;;;16.20;85.00;;;;;;4247169;27;19927;-39
2020/12/15 03:18:51;;;;;;;;;;;16.10;85.20;;;;;;4247414;27;20033;-39
2020/12/15 03:21:17;;;;;;;;;;;16.10;85.40;;;;;;4247119;27;20464;-39
2020/12/15 03:23:37;;;;;;;;;;;16.10;85.60;;;;;;4247281;27;20376;-39
2020/12/15 03:25:59;;;;;;;;;;;16.00;85.80;;;;;;4246844;27;19923;-39
2020/12/15 03:28:21;;;;;;;;;;;15.90;85.90;;;;;;4247054;27;19934;-39
2020/12/15 03:30:45;;;;;;;;;;;15.90;86.20;;;;;;4247142;27;20350;-39
2020/12/15 03:33:06;;;;;;;;;;;15.90;86.40;;;;;;4246913;27;19935;-39
2020/12/15 03:35:28;;;;;;;;;;;16.10;85.70;;;;;;4246862;27;20010;-39
2020/12/15 03:37:52;;;;;;;;;;;16.20;85.10;;;;;;4246708;27;19927;-39
2020/12/15 03:40:16;;;;;;;;;;;16.30;84.70;;;;;;4246926;27;19927;-39
2020/12/15 03:42:56;;;;;;;;;;;16.30;84.50;;;;;;4230700;28;19935;-39
2020/12/15 03:45:25;;;;;;;;;;;16.30;84.40;;;;;;4234853;27;19930;-39
2020/12/15 03:47:47;;;;;;;;;;;16.30;84.40;;;;;;4246748;27;19974;-39
2020/12/15 03:50:09;;;;;;;;;;;16.30;84.60;;;;;;4247477;27;20275;-39
2020/12/15 03:52:31;;;;;;;;;;;16.20;84.70;;;;;;4246536;27;19935;-39
2020/12/15 03:55:00;;;;;;;;;;;16.20;84.90;;;;;;4246324;27;19957;-39
2020/12/15 03:57:49;;;;;;;;;;;16.20;84.70;;;;;;4247758;27;19927;-39
2020/12/15 04:00:36;;;;;;;;;;;16.30;84.60;;;;;;4240577;27;19951;-38
2020/12/15 04:03:05;;;;;;;;;;;16.30;84.50;;;;;;4246813;27;19923;-38
2020/12/15 04:05:48;;;;;;;;;;;16.30;84.50;;;;;;4244812;27;20610;-39
2020/12/15 04:08:09;;;;;;;;;;;16.20;84.70;;;;;;4246271;27;19988;-39
2020/12/15 04:10:31;;;;;;;;;;;16.20;84.80;;;;;;4246280;27;20039;-39
2020/12/15 04:12:53;;;;;;;;;;;16.20;85.00;;;;;;4246242;27;20496;-39
2020/12/15 04:15:14;;;;;;;;;;;16.10;85.20;;;;;;4245936;27;19958;-39
2020/12/15 04:17:36;;;;;;;;;;;16.00;85.30;;;;;;4246421;27;20011;-39
2020/12/15 04:20:01;;;;;;;;;;;16.00;85.60;;;;;;4246235;27;19976;-39
2020/12/15 04:22:22;;;;;;;;;;;16.10;85.40;;;;;;4246005;27;20067;-39
2020/12/15 04:24:47;;;;;;;;;;;16.30;84.70;;;;;;4245817;27;19923;-39
2020/12/15 04:27:11;;;;;;;;;;;16.40;84.20;;;;;;4245834;27;19931;-39
2020/12/15 04:29:32;;;;;;;;;;;16.40;83.90;;;;;;4246338;27;20308;-39
2020/12/15 04:32:18;;;;;;;;;;;16.50;83.50;;;;;;4245824;27;19995;-39
2020/12/15 04:34:58;;;;;;;;;;;16.60;82.80;;;;;;4245580;27;19927;-39
2020/12/15 04:37:21;;;;;;;;;;;16.70;82.50;;;;;;4229158;28;19951;-39
2020/12/15 04:39:49;;;;;;;;;;;16.70;82.20;;;;;;4229329;28;19928;-39
2020/12/15 04:42:10;;;;;;;;;;;16.70;82.30;;;;;;4243896;27;19950;-39
2020/12/15 04:44:31;;;;;;;;;;;16.70;82.30;;;;;;4246753;27;20376;-39
2020/12/15 04:47:02;;;;;;;;;;;16.70;82.70;;;;;;4229731;28;19923;-39
2020/12/15 04:49:27;;;;;;;;;;;16.60;82.90;;;;;;4243010;27;19969;-39
2020/12/15 04:51:56;;;;;;;;;;;16.50;83.20;;;;;;4228691;28;20421;-39
2020/12/15 04:54:32;;;;;;;;;;;16.50;83.20;;;;;;4240523;27;20515;-38
2020/12/15 04:57:00;;;;;;;;;;;16.60;83.10;;;;;;4245355;27;19959;-39
2020/12/15 04:59:36;;;;;;;;;;;16.50;83.10;;;;;;4245488;27;19968;-39
2020/12/15 05:02:12;;;;;;;;;;;16.50;83.20;;;;;;4246112;27;19927;-38
2020/12/15 05:04:37;;;;;;;;;;;16.50;83.40;;;;;;4245551;27;20022;-39
2020/12/15 05:07:00;;;;;;;;;;;16.50;83.60;;;;;;4246513;27;19927;-39
2020/12/15 05:09:40;;;;;;;;;;;16.60;83.00;;;;;;4245362;27;20388;-39
2020/12/15 05:12:02;;;;;;;;;;;16.80;82.00;;;;;;4245679;27;19928;-39
2020/12/15 05:14:33;;;;;;;;;;;16.90;81.50;;;;;;4245383;28;20108;-39
2020/12/15 05:16:55;;;;;;;;;;;16.90;81.40;;;;;;4245260;27;19927;-39
2020/12/15 05:19:42;;;;;;;;;;;16.90;81.40;;;;;;4246513;27;19927;-39
2020/12/15 05:22:04;;;;;;;;;;;16.90;81.50;;;;;;4245707;27;19934;-39
2020/12/15 05:24:33;;;;;;;;;;;16.80;81.80;;;;;;4245500;28;19924;-39
2020/12/15 05:26:56;;;;;;;;;;;16.70;82.00;;;;;;4245159;28;19929;-39
2020/12/15 05:29:20;;;;;;;;;;;16.60;82.40;;;;;;4245461;28;19970;-38
2020/12/15 05:32:02;;;;;;;;;;;16.60;82.70;;;;;;4245647;28;20026;-39
2020/12/15 05:34:41;;;;;;;;;;;16.50;83.10;;;;;;4246413;27;19939;-38
2020/12/15 05:37:22;;;;;;;;;;;16.60;82.90;;;;;;4246474;28;19956;-39
2020/12/15 05:40:02;;;;;;;;;;;16.60;82.50;;;;;;4246198;28;19973;-39
2020/12/15 05:42:38;;;;;;;;;;;16.70;82.50;;;;;;4228524;28;19932;-39
2020/12/15 05:45:00;;;;;;;;;;;16.60;82.50;;;;;;4229870;28;20457;-39
2020/12/15 05:47:22;;;;;;;;;;;16.60;82.60;;;;;;4228230;28;20020;-39
2020/12/15 05:49:53;;;;;;;;;;;16.60;82.80;;;;;;4227960;28;19928;-39
2020/12/15 05:52:14;;;;;;;;;;;16.50;83.20;;;;;;4244599;28;20031;-39
2020/12/15 05:54:35;;;;;;;;;;;16.60;83.30;;;;;;4246108;28;19928;-39
2020/12/15 05:57:02;;;;;;;;;;;16.60;82.80;;;;;;4245978;27;20376;-39
2020/12/15 05:59:24;;;;;;;;;;;16.60;82.50;;;;;;4246333;28;19967;-39
2020/12/15 06:01:49;;;;;;;;;;;16.70;82.40;;;;;;4246372;28;19927;-39
2020/12/15 06:04:10;;;;;;;;;;;16.70;82.40;;;;;;4246107;28;19927;-40
2020/12/15 06:06:32;;;;;;;;;;;16.70;82.30;;;;;;4246352;28;19935;-39
2020/12/15 06:08:52;;;;;;;;;;;16.70;82.30;;;;;;4246436;28;19928;-39
2020/12/15 06:11:14;;;;;;;;;;;16.70;82.40;;;;;;4246234;28;20395;-39
2020/12/15 06:13:44;;;;;;;;;;;16.60;82.50;;;;;;4246527;28;19931;-40
2020/12/15 06:16:06;;;;;;;;;;;16.60;82.80;;;;;;4246325;28;19930;-39
2020/12/15 06:18:32;;;;;;;;;;;16.60;82.90;;;;;;4245872;27;19938;-41
2020/12/15 06:20:53;;;;;;;;;;;16.60;82.90;;;;;;4245563;28;19923;-39
2020/12/15 06:23:14;;;;;;;;;;;16.60;82.90;;;;;;4245864;27;20301;-47
2020/12/15 06:25:36;;;;;;;;;;;16.50;83.00;;;;;;4246000;28;19939;-39
2020/12/15 06:28:02;;;;;;;;;;;16.50;83.30;;;;;;4245950;27;19928;-41
2020/12/15 06:30:27;;;;;;;;;;;16.50;83.20;;;;;;4249399;27;19973;-39
2020/12/15 06:32:57;;;;;;;;;;;16.50;83.20;;;;;;4242409;27;19934;-38
2020/12/15 06:35:24;;;;;;;;;;;16.50;83.30;;;;;;4248897;27;20391;-39
2020/12/15 06:37:46;;;;;;;;;;;16.40;83.50;;;;;;4248676;27;19927;-39
2020/12/15 06:40:06;;;;;;;;;;;16.40;83.70;;;;;;4248735;27;19923;-39
2020/12/15 06:42:27;;;;;;;;;;;16.40;84.10;;;;;;4232611;28;19928;-39
2020/12/15 06:44:58;;;;;;;;;;;16.50;83.80;;;;;;4232069;28;19932;-39
2020/12/15 06:47:24;;;;;;;;;;;16.60;83.00;;;;;;4231530;28;19924;-39
2020/12/15 06:49:46;;;;;;;;;;;16.70;82.30;;;;;;4231428;28;19923;-37
2020/12/15 06:52:08;;;;;;;;;;;16.80;81.90;;;;;;4247474;27;20381;-38
2020/12/15 06:54:29;;;;;;;;;;;16.80;81.90;;;;;;4248648;27;19977;-38
2020/12/15 06:56:59;;;;;;;;;;;16.90;81.80;;;;;;4248313;27;19928;-38
2020/12/15 06:59:29;;;;;;;;;;;16.80;81.70;;;;;;4248296;27;19927;-38
2020/12/15 07:01:50;;;;;;;;;;;16.80;81.90;;;;;;4248144;27;19970;-38
2020/12/15 07:04:19;;;;;;;;;;;16.80;82.10;;;;;;4248314;27;19931;-40
2020/12/15 07:06:41;;;;;;;;;;;16.80;82.20;;;;;;4248314;27;19988;-38
2020/12/15 07:09:04;;;;;;;;;;;16.80;82.50;;;;;;4248244;27;20373;-38
2020/12/15 07:11:25;;;;;;;;;;;16.70;82.70;;;;;;4247740;27;20369;-39
2020/12/15 07:13:54;;;;;;;;;;;16.60;82.90;;;;;;4248181;27;19986;-38
2020/12/15 07:16:17;;;;;;;;;;;16.60;83.10;;;;;;4247847;27;19933;-38
2020/12/15 07:18:38;;;;;;;;;;;16.70;83.90;;;;;;4248007;27;19928;-38
2020/12/15 07:20:59;;;;;;;;;;;16.70;83.40;;;;;;4247828;27;19927;-38
2020/12/15 07:23:37;;;;;;;;;;;16.70;83.80;;;;;;4248107;27;19927;-38
2020/12/15 07:25:58;;;;;;;;;;;16.70;84.30;;;;;;4248324;27;19947;-38
2020/12/15 07:28:20;;;;;;;;;;;16.60;84.20;;;;;;4248318;27;19924;-38
2020/12/15 07:30:41;;;;;;;;;;;16.60;84.30;;;;;;4255572;27;19923;-38
2020/12/15 07:33:02;;;;;;;;;;;16.60;84.50;;;;;;4255276;27;19934;-37
2020/12/15 07:35:24;;;;;;;;;;;16.60;84.20;;;;;;4248147;27;19931;-38
2020/12/15 07:37:49;;;;;;;;;;;16.60;83.80;;;;;;4257571;27;19937;-38
2020/12/15 07:40:12;;;;;;;;;;;16.60;83.70;;;;;;4263544;27;20030;-38
2020/12/15 07:42:33;;;;;;;;;;;16.60;83.80;;;;;;4248232;27;19931;-38
2020/12/15 07:44:58;;;;;;;;;;;16.60;83.90;;;;;;4248065;27;19923;-38
2020/12/15 07:47:19;;;;;;;;;;;16.60;83.60;;;;;;4258555;27;19927;-38
2020/12/15 07:49:40;;;;;;;;;;;16.60;83.30;;;;;;4247678;27;20424;-39
2020/12/15 07:52:01;;;;;;;;;;;16.60;83.30;;;;;;4247469;27;20316;-39
2020/12/15 07:54:22;;;;;;;;;;;16.60;83.30;;;;;;4247956;27;19927;-39
2020/12/15 07:56:45;;;;;;;;;;;16.60;83.10;;;;;;4247781;27;19927;-38
2020/12/15 07:59:10;;;;;;;;;;;16.70;82.80;;;;;;4247951;27;19931;-38
2020/12/15 08:01:32;;;;;;;;;;;16.60;82.60;;;;;;4247154;27;19927;-38
2020/12/15 08:04:00;;;;;;;;;;;16.60;82.70;;;;;;4258812;27;19927;-38
2020/12/15 08:06:24;;;;;;;;;;;16.60;82.60;;;;;;4247927;27;19923;-38
2020/12/15 08:08:45;;;;;;;;;;;16.70;82.20;;;;;;4247825;27;19927;-38
2020/12/15 08:11:14;;;;;;;;;;;16.70;82.20;;;;;;4247484;27;19927;-39
2020/12/15 08:13:36;;;;;;;;;;;16.70;82.20;;;;;;4247744;27;19931;-38
2020/12/15 08:15:56;;;;;;;;;;;16.60;82.10;;;;;;4247295;27;20327;-38
2020/12/15 08:18:17;;;;;;;;;;;16.60;82.40;;;;;;4246908;27;19934;-39
2020/12/15 08:20:41;;;;;;;;;;;16.60;82.50;;;;;;4247379;27;19980;-39
2020/12/15 08:23:04;;;;;;;;;;;16.50;82.80;;;;;;4247521;27;19927;-38
2020/12/15 08:25:24;;;;;;;;;;;16.50;83.00;;;;;;4246739;27;19928;-39
2020/12/15 08:27:45;;;;;;;;;;;16.50;82.90;;;;;;4247098;27;19928;-39
2020/12/15 08:30:14;;;;;;;;;;;16.60;82.30;;;;;;4246516;27;19936;-39
2020/12/15 08:32:34;;;;;;;;;;;16.70;81.80;;;;;;4232742;27;19995;-39
2020/12/15 08:35:02;;;;;;;;;;;16.70;81.60;;;;;;4246977;27;19928;-38
2020/12/15 08:37:23;;;;;;;;;;;16.70;81.60;;;;;;4255119;27;20693;-38
2020/12/15 08:39:45;;;;;;;;;;;16.70;81.70;;;;;;4246435;27;19928;-39
2020/12/15 08:42:08;;;;;;;;;;;16.70;81.90;;;;;;4247310;27;19932;-38
2020/12/15 08:44:34;;;;;;;;;;;16.60;82.10;;;;;;4247246;27;20030;-38
2020/12/15 08:46:57;;;;;;;;;;;16.50;82.30;;;;;;4246774;27;19950;-38
2020/12/15 08:49:18;;;;;;;;;;;16.50;82.60;;;;;;4245428;27;19934;-38
2020/12/15 08:51:43;;;;;;;;;;;16.40;82.80;;;;;;4245916;27;19927;-39
2020/12/15 08:54:04;;;;;;;;;;;16.30;83.20;;;;;;4246751;27;20292;-39
2020/12/15 08:56:24;;;;;;;;;;;16.20;83.40;;;;;;4246862;27;20403;-39
2020/12/15 08:58:45;;;;;;;;;;;16.20;83.70;;;;;;4246752;27;19927;-39
2020/12/15 09:01:05;;;;;;;;;;;16.10;83.90;;;;;;4246485;27;19934;-38
2020/12/15 09:03:29;;;;;;;;;;;16.10;84.10;;;;;;4246584;27;19927;-39
2020/12/15 09:05:51;;;;;;;;;;;16.00;84.30;;;;;;4245026;27;19950;-39
2020/12/15 09:08:12;;;;;;;;;;;16.00;84.60;;;;;;4253707;27;19931;-39
2020/12/15 09:10:33;;;;;;;;;;;16.00;84.80;;;;;;4250548;27;20018;-38
2020/12/15 09:12:57;;;;;;;;;;;15.90;84.80;;;;;;4251359;27;19927;-38
2020/12/15 09:15:26;;;;;;;;;;;15.90;85.00;;;;;;4251480;27;19927;-39
2020/12/15 09:17:47;;;;;;;;;;;15.80;85.10;;;;;;4250152;27;19938;-39
2020/12/15 09:20:09;;;;;;;;;;;15.80;85.30;;;;;;4253701;27;20011;-38
2020/12/15 09:22:30;;;;;;;;;;;15.80;85.40;;;;;;4251992;27;19927;-38
2020/12/15 09:24:51;;;;;;;;;;;15.70;85.50;;;;;;4250514;27;19976;-39
2020/12/15 09:27:17;;;;;;;;;;;15.70;85.60;;;;;;4251535;27;19971;-38
2020/12/15 09:29:40;;;;;;;;;;;15.70;85.60;;;;;;4250836;27;19927;-39
2020/12/15 09:32:03;;;;;;;;;;;15.60;85.70;;;;;;4248610;27;20412;-38
2020/12/15 09:34:24;;;;;;;;;;;15.60;85.90;;;;;;4251036;27;20391;-40
2020/12/15 09:36:56;;;;;;;;;;;15.60;86.00;;;;;;4251254;27;19931;-39
2020/12/15 09:39:17;;;;;;;;;;;15.60;86.00;;;;;;4246307;27;19928;-39
2020/12/15 09:41:38;;;;;;;;;;;15.60;86.20;;;;;;4253767;27;19927;-39
2020/12/15 09:43:59;;;;;;;;;;;15.50;86.20;;;;;;4251557;27;20381;-39
2020/12/15 09:46:23;;;;;;;;;;;15.40;86.20;;;;;;4250499;27;19927;-43
2020/12/15 09:48:46;;;;;;;;;;;15.40;86.30;;;;;;4253655;27;20258;-38
2020/12/15 09:51:10;;;;;;;;;;;15.40;86.40;;;;;;4251457;27;20044;-42
2020/12/15 09:54:50;;;;;;;0.00;0.00;;;15.40;85.90;;;;;;4240142;27;20419;-40
2020/12/15 09:57:12;;;;;;;0.10;0.10;;;15.40;86.80;;;;;;4238232;27;20561;-40
2020/12/15 09:59:32;;;;;;;0.00;0.00;;;15.40;86.80;;;;;;4242218;28;20524;-42
2020/12/15 10:01:53;;;;;;;1.23;0.52;;;15.40;86.80;;;;;;4236133;28;20117;-42
2020/12/15 10:04:14;;;;;;;0.10;0.10;;;15.40;87.00;;;;;;4239024;28;20051;-41
2020/12/15 10:06:36;;;;;;;0.00;0.00;;;15.30;86.90;;;;;;4237295;28;20054;-40
2020/12/15 10:08:57;;;;;;;1.10;1.05;;;15.30;87.00;;;;;;4236369;28;20109;-41
2020/12/15 10:11:19;;;;;;;0.32;0.32;;;15.30;87.10;;;;;;4237934;27;20079;-40
2020/12/15 10:13:40;;;;;;;0.40;0.40;;;15.30;87.10;;;;;;4234625;28;20079;-39
2020/12/15 10:16:03;;;;;;;0.38;0.38;;;15.30;87.20;;;;;;4240322;27;20051;-40
2020/12/15 10:18:25;;;;;;;0.00;0.00;;;15.30;87.10;;;;;;4235367;28;20056;-40
2020/12/15 10:20:48;;;;;;;0.10;0.10;;;15.40;86.60;;;;;;4234046;28;20874;-40
2020/12/15 10:23:10;;;;;;;0.90;0.90;;;15.60;85.90;;;;;;4233961;27;20070;-40
2020/12/15 10:25:32;;;;;;;0.95;0.95;;;15.70;85.30;;;;;;4238297;28;20490;-41
2020/12/15 10:27:54;;;;;;;0.00;0.00;;;15.70;85.00;;;;;;4237908;27;20047;-40
2020/12/15 10:30:15;;;;;;;0.22;0.22;;;15.70;84.80;;;;;;4233816;27;20127;-40
2020/12/15 10:32:37;;;;;;;1.40;0.85;;;15.70;84.70;;;;;;4234998;27;20044;-40
2020/12/15 10:34:58;;;;;;;;;;;15.70;84.60;;;;;;4238762;28;20481;-39
2020/12/15 10:37:22;;;;;;;0.10;0.10;;;15.70;84.70;;;;;;4236648;28;19927;-40
2020/12/15 10:39:43;;;;;;;0.00;0.00;;;15.70;84.70;;;;;;4236365;28;20134;-40
2020/12/15 10:42:04;;;;;;;0.90;0.90;;;15.60;84.70;;;;;;4236222;27;20048;-40
2020/12/15 10:44:26;;;;;;;;;;;15.60;84.80;;;;;;4239216;28;20839;-40
2020/12/15 10:46:48;;;;;;;0.40;0.40;;;15.60;84.90;;;;;;4234427;28;19924;-40
2020/12/15 10:49:11;;;;;;;0.10;0.10;;;15.60;85.10;;;;;;4239684;28;20531;-40
2020/12/15 10:51:32;;;;;;;0.82;0.82;;;15.50;85.10;;;;;;4235748;27;20379;-40
2020/12/15 10:53:54;;;;;;;0.05;0.05;;;15.50;85.20;;;;;;4233161;27;20085;-40
2020/12/15 10:56:19;;;;;;;1.45;0.98;;;15.50;85.30;;;;;;4236478;28;20056;-40
2020/12/15 10:58:40;;;;;;;0.15;0.15;;;15.50;85.40;;;;;;4236849;28;20067;-41
2020/12/15 11:01:05;;;;;;;1.00;0.30;;;15.50;85.60;;;;;;4235550;28;20559;-40
2020/12/15 11:03:27;;;;;;;2.42;0.98;;;15.50;85.60;;;;;;4238933;28;20490;-40
2020/12/15 11:05:49;;;;;;;0.88;0.80;;;15.60;85.10;;;;;;4224329;28;20052;-41
2020/12/15 11:08:10;;;;;;;0.00;0.00;;;15.70;84.70;;;;;;4226486;27;20052;-40
2020/12/15 11:10:31;;;;;;;;;;;15.70;84.40;;;;;;4228223;28;20047;-40
2020/12/15 11:12:52;;;;;;;0.57;0.57;;;15.70;84.30;;;;;;4222636;28;19998;-40
2020/12/15 11:15:14;;;;;;;0.73;0.73;;;15.80;83.90;;;;;;4224682;28;20305;-40
2020/12/15 11:17:36;;;;;;;0.38;0.38;;;16.00;83.40;;;;;;4225991;28;20410;-40
2020/12/15 11:19:58;;;;;;;0.57;0.57;;;16.10;83.00;;;;;;4223433;28;20069;-40
2020/12/15 11:22:20;;;;;;;0.20;0.20;;;16.10;82.70;;;;;;4224461;28;20044;-40
2020/12/15 11:24:41;;;;;;;;;;;16.10;82.50;;;;;;4229472;28;20044;-41
2020/12/15 11:27:03;;;;;;;0.05;0.05;;;16.10;82.50;;;;;;4223855;28;19973;-40
2020/12/15 11:29:24;;;;;;;0.00;0.00;;;16.10;82.60;;;;;;4222968;28;20044;-40
2020/12/15 11:31:49;;;;;;;0.10;0.10;;;16.00;82.70;;;;;;4226059;28;20579;-40
2020/12/15 11:34:11;;;;;;;1.10;1.10;;;16.00;82.90;;;;;;4225967;28;20054;-40
2020/12/15 11:36:32;;;;;;;0.32;0.32;;;15.90;83.00;;;;;;4221766;28;20110;-40
2020/12/15 11:38:54;;;;;;;0.20;0.20;;;15.90;83.30;;;;;;4225632;28;20424;-40
2020/12/15 11:41:16;;;;;;;0.10;0.10;;;15.90;83.50;;;;;;4225383;28;20071;-40
2020/12/15 11:43:37;;;;;;;0.47;0.47;;;15.80;83.70;;;;;;4223950;28;20052;-40
2020/12/15 11:45:58;;;;;;;;;;;15.80;83.90;;;;;;4223594;28;20606;-40
2020/12/15 11:48:19;;;;;;;2.50;2.33;;;15.80;84.10;;;;;;4225984;28;19924;-41
2020/12/15 11:50:41;;;;;;;0.73;0.73;;;15.70;84.30;;;;;;4221855;28;20518;-40
2020/12/15 11:53:02;;;;;;;0.20;0.20;;;15.70;84.60;;;;;;4223700;28;20520;-40
2020/12/15 11:55:23;;;;;;;;;;;15.60;84.80;;;;;;4226542;28;20044;-40
2020/12/15 11:57:46;;;;;;;3.20;1.45;;;15.60;85.00;;;;;;4221070;28;19924;-40
2020/12/15 12:00:08;;;;;;;0.55;0.55;;;15.60;85.10;;;;;;4227705;28;20135;-40
2020/12/15 12:02:32;;;;;;;0.10;0.10;;;15.50;85.30;;;;;;4226893;28;20122;-40
2020/12/15 12:04:53;;;;;;;0.73;0.73;;;15.50;85.40;;;;;;4224520;28;20518;-40
2020/12/15 12:07:15;;;;;;;3.63;1.13;;;15.50;85.60;;;;;;4224933;28;20047;-40
2020/12/15 12:09:37;;;;;;;0.50;0.50;;;15.50;85.70;;;;;;4224334;28;20040;-41
2020/12/15 12:12:01;;;;;;;0.75;0.75;;;15.40;85.80;;;;;;4222261;28;20456;-40
2020/12/15 12:14:22;;;;;;;0.15;0.15;;;15.40;85.90;;;;;;4225004;28;20131;-44
2020/12/15 12:16:43;;;;;;;0.20;0.20;;;15.40;86.10;;;;;;4223661;28;20047;-40
2020/12/15 12:19:04;;;;;;;0.45;0.45;;;15.40;86.20;;;;;;4223025;28;20127;-41
2020/12/15 12:21:25;;;;;;;0.20;0.20;;;15.30;86.30;;;;;;4221879;28;20079;-40
2020/12/15 12:23:50;;;;;;;0.00;0.00;;;15.30;86.40;;;;;;4221088;28;20044;-40
2020/12/15 12:26:14;;;;;;;0.70;0.70;;;15.30;86.50;;;;;;4223875;28;20078;-41
2020/12/15 12:28:35;;;;;;;0.43;0.43;;;15.30;86.60;;;;;;4223171;28;20055;-40
2020/12/15 12:30:57;;;;;;;0.10;0.10;;;15.20;86.80;;;;;;4225448;28;20082;-40
2020/12/15 12:33:18;;;;;;;0.00;0.00;;;15.20;87.20;;;;;;4220639;28;20448;-40
2020/12/15 12:35:39;;;;;;;;;;;15.20;87.50;;;;;;4221113;28;20074;-40
2020/12/15 12:38:00;;;;;;;0.30;0.30;;;15.20;87.60;;;;;;4223168;28;19923;-41
2020/12/15 12:40:22;;;;;;;1.08;1.02;;;15.40;87.60;;;;;;4229177;28;20055;-40
2020/12/15 12:42:44;;;;;;;0.43;0.43;;;15.50;86.80;;;;;;4229229;28;20047;-41
2020/12/15 12:45:06;;;;;;;0.10;0.10;;;15.60;86.20;;;;;;4229464;27;20141;-40
2020/12/15 12:47:34;;;;;;;0.22;0.22;;;15.70;85.80;;;;;;4229831;27;20049;-40
2020/12/15 12:49:54;;;;;;;0.32;0.32;;;15.80;85.70;;;;;;4228840;28;20536;-41
2020/12/15 12:52:16;;;;;;;0.20;0.20;;;15.80;85.60;;;;;;4213251;28;20414;-40
2020/12/15 12:54:37;;;;;;;0.13;0.10;;;15.80;85.60;;;;;;4217215;28;20055;-40
2020/12/15 12:56:58;;;;;;;0.10;0.10;;;15.80;85.40;;;;;;4230024;28;20052;-39
2020/12/15 12:59:19;;;;;;;0.40;0.40;;;15.90;85.40;;;;;;4225767;28;20043;-40
2020/12/15 13:01:41;;;;;;;0.73;0.73;;;15.90;85.60;;;;;;4225335;28;20051;-39
2020/12/15 13:04:03;;;;;;;0.00;0.00;;;15.80;85.70;;;;;;4212696;28;20414;-40
2020/12/15 13:06:23;;;;;;;0.00;0.00;;;15.80;86.50;;;;;;4212706;28;20040;-40
2020/12/15 13:08:45;;;;;;;0.00;0.00;;;15.90;87.10;;;;;;4213859;28;20048;-39
2020/12/15 13:11:15;;;;;;;1.20;1.20;;;15.90;87.50;;;;;;4229537;28;20509;-40
2020/12/15 13:13:37;;;;;;;1.02;0.80;;;16.00;87.50;;;;;;4228896;28;20047;-41
2020/12/15 13:15:58;;;;;;;0.47;0.47;;;16.10;86.40;;;;;;4212555;28;20506;-40
2020/12/15 13:18:19;;;;;;;0.10;0.10;;;16.30;86.20;;;;;;4212669;28;20418;-40
2020/12/15 13:20:40;;;;;;;0.40;0.40;;;16.60;85.00;;;;;;4212679;28;20056;-40
2020/12/15 13:23:02;;;;;;;0.43;0.43;;;16.80;83.50;;;;;;4212671;28;20062;-40
2020/12/15 13:25:23;;;;;;;0.20;0.20;;;17.10;82.30;;;;;;4212654;28;20155;-40
2020/12/15 13:27:44;;;;;;;0.10;0.10;;;17.20;81.60;;;;;;4217944;28;20126;-40
2020/12/15 13:30:09;;;;;;;20.35;3.40;;;17.20;81.50;;;;;;4229255;28;20729;-40
2020/12/15 13:32:32;;;;;;;1.13;1.13;;;17.10;81.50;;;;;;4228003;28;20048;-40
2020/12/15 13:34:54;;;;;;;2.50;0.80;;;17.10;82.00;;;;;;4229279;28;20122;-40